Zim Ontario — 9HA3594 — position and weather

sailwx.info

Track history (hours):
 
Tides and Currents Weather Stations Pressure Air Temp Water Temp Dewpoint Dewpoint Depression Visibility Wind Speed Wind Dir Waves Ship Positions

Zim Ontario

Last reported at 2018-Jun-18 07:00 UTC. Time now 2018-Jun-19 08:42 UTC.
Position N 01°18' E 103°19'.

Length 275 m; draft 12.3 m.

Type: Ship. MMSI: 229772000.

Date/timePositionNaut miles runAvg speedWind from/ knotsBaromVisibWave heightAir tempDewpointWater temp
2018-Jun-18 07:00N 01°18' E 103°19'916.2
2018-Jun-18 06:27N 01°13' E 103°27'713.8
2018-Jun-18 05:59N 01°12' E 103°33'714.3
2018-Jun-18 05:30N 01°11' E 103°40'611.4
2018-Jun-18 05:00N 01°09' E 103°46'713.0
2018-Jun-18 04:30N 01°12' E 103°51'5 9.3
2018-Jun-18 04:00N 01°14' E 103°56'612.1
2018-Jun-18 03:30N 01°16' E 104°01'510.8
2018-Jun-18 03:00N 01°17' E 104°07'713.9
2018-Jun-18 02:28N 01°17' E 104°14'714.0
2018-Jun-18 01:58N 01°20' E 104°21'814.0
2018-Jun-18 01:23N 01°25' E 104°27'  
2018-Jun-13 11:45N 23°17' E 117°46'817.7
2018-Jun-13 11:20N 23°21' E 117°53'1117.2
2018-Jun-13 10:42N 23°28' E 118°02'417.2
2018-Jun-13 10:27N 23°31' E 118°05'48517.5
2018-Jun-12 06:43N 30°26' E 122°47'716.7
2018-Jun-12 06:19N 30°29' E 122°40'516.7
2018-Jun-12 06:00N 30°31' E 122°34'814.7
2018-Jun-12 05:28N 30°32' E 122°25'714.3
2018-Jun-12 04:57N 30°33' E 122°17'815.4
2018-Jun-12 04:27N 30°35' E 122°08'5 0.4
2018-Jun-11 16:24N 30°37' E 122°04'1 3.0
2018-Jun-11 15:58N 30°36' E 122°05'511.5
2018-Jun-11 15:30N 30°34' E 122°10'4 7.1
2018-Jun-11 14:59N 30°34' E 122°15'2 5.1
2018-Jun-11 14:30N 30°33' E 122°17'  
Track history (hours):
 
Tides and Currents Weather Stations Pressure Air Temp Water Temp Dewpoint Dewpoint Depression Visibility Wind Speed Wind Dir Waves Ship Positions

Zim Ontario

Last reported at 2018-Jun-18 07:00 UTC. Time now 2018-Jun-19 08:42 UTC.
Position N 01°18' E 103°19'.

Length 275 m; draft 12.3 m.

Type: Ship. MMSI: 229772000.

Date/timePositionNaut miles runAvg speedWind from/ knotsBaromVisibWave heightAir tempDewpointWater temp
2018-Jun-18 07:00N 01°18' E 103°19'916.2
2018-Jun-18 06:27N 01°13' E 103°27'713.8
2018-Jun-18 05:59N 01°12' E 103°33'714.3
2018-Jun-18 05:30N 01°11' E 103°40'611.4
2018-Jun-18 05:00N 01°09' E 103°46'713.0
2018-Jun-18 04:30N 01°12' E 103°51'5 9.3
2018-Jun-18 04:00N 01°14' E 103°56'612.1
2018-Jun-18 03:30N 01°16' E 104°01'510.8
2018-Jun-18 03:00N 01°17' E 104°07'713.9
2018-Jun-18 02:28N 01°17' E 104°14'714.0
2018-Jun-18 01:58N 01°20' E 104°21'814.0
2018-Jun-18 01:23N 01°25' E 104°27'  
2018-Jun-13 11:45N 23°17' E 117°46'817.7
2018-Jun-13 11:20N 23°21' E 117°53'1117.2
2018-Jun-13 10:42N 23°28' E 118°02'417.2
2018-Jun-13 10:27N 23°31' E 118°05'48517.5
2018-Jun-12 06:43N 30°26' E 122°47'716.7
2018-Jun-12 06:19N 30°29' E 122°40'516.7
2018-Jun-12 06:00N 30°31' E 122°34'814.7
2018-Jun-12 05:28N 30°32' E 122°25'714.3
2018-Jun-12 04:57N 30°33' E 122°17'815.4
2018-Jun-12 04:27N 30°35' E 122°08'5 0.4
2018-Jun-11 16:24N 30°37' E 122°04'1 3.0
2018-Jun-11 15:58N 30°36' E 122°05'511.5
2018-Jun-11 15:30N 30°34' E 122°10'4 7.1
2018-Jun-11 14:59N 30°34' E 122°15'2 5.1
2018-Jun-11 14:30N 30°33' E 122°17'  

Dump ship's entire track history